Peotone Weather

Nearby METAR Reports

 

KIGQ - Lansing, Illinois, USA
Distance from station: NE 19mi, 30km
Updated: Mon, 18-Jun-2018 8:35am CDT
Clear
Clear
 Wind from WSW
Wind: WSW 14 mph , 22 km/h, Gust: 20 mph , 31 km/h
Temperature: 84°F , 29°C
Heat Index: 92°F , 33°C
Dew Point: 75°F , 24°C
Humidity: 74%
Barometer: 30.00 inHg , 1015.9 hPa
Clouds: Clear
Visibility: 10 miles , 16 km
2018/06/18 13:35 KIGQ 181335Z AUTO 25012G17KT 10SM CLR 29/24 A3000 RMK AO2 T02910241
KIKK - Kankakee, Illinois, USA
Distance from station: S 19mi, 30km
Updated: Mon, 18-Jun-2018 8:35am CDT
Clear
Clear
 Wind from W
Wind: W 10 mph , 17 km/h
Temperature: 84°F , 29°C
Heat Index: 90°F , 32°C
Dew Point: 73°F , 23°C
Humidity: 70%
Barometer: 30.03 inHg , 1016.9 hPa
Clouds: Clear
Visibility: 10 miles , 16 km
2018/06/18 13:35 KIKK 181335Z AUTO 26009KT 10SM CLR 29/23 A3003 RMK AO2 T02900231
 
KSJC - Joliet, Illinois, USA
Distance from station: WNW 24mi, 38km
Updated: Mon, 18-Jun-2018 7:53am CDT
NOT Current
Mostly cloudy
Mostly cloudy
 Wind from ESE
Wind: ESE 3 mph , 6 km/h
Temperature: 59°F , 15°C
Dew Point: 52°F , 11°C
Humidity: 77%
Barometer: 30.02 inHg , 1016.6 hPa
Clouds: Mostly cloudy
Visibility: 10 miles , 16 km
Cloud details: Few Clouds 800 ft
Mostly cloudy 1800 ft
2018/06/18 12:53 KSJC 181253Z 12003KT 10SM FEW008 BKN018 15/11 A3002 RMK AO2 SLP165 T01500111
KLOT - Romeoville, Illinois, USA
Distance from station: NW 26mi, 41km
Updated: Mon, 18-Jun-2018 8:35am CDT
Clear
Clear
 Wind from WSW
Wind: WSW 10 mph , 17 km/h
Temperature: 82°F , 28°C
Heat Index: 87°F , 31°C
Dew Point: 73°F , 23°C
Humidity: 74%
Barometer: 30.01 inHg , 1016.3 hPa
Clouds: Clear
Visibility: 10 miles , 16 km
2018/06/18 13:35 KLOT 181335Z AUTO 25009KT 10SM CLR 28/23 A3001 RMK AO2 T02840233
 
KMDW - Midway Airport Chicago, Illinois, USA
Distance from station: N 31mi, 50km
Updated: Mon, 18-Jun-2018 7:53am CDT
NOT Current
Partly cloudy
Partly cloudy
 Wind from WSW
Wind: WSW 16 mph , 26 km/h
Temperature: 82°F , 28°C
Heat Index: 87°F , 31°C
Dew Point: 73°F , 23°C
Humidity: 74%
Barometer: 29.98 inHg , 1015.2 hPa
Clouds: Partly cloudy
Visibility: 10 miles , 16 km
Cloud details: Partly cloudy 25000 ft
2018/06/18 12:53 KMDW 181253Z 24014KT 10SM SCT250 28/23 A2998 RMK AO2 SLP139 T02830233
KC09 - Morris, Illinois, USA
Distance from station: W 34mi, 54km
Updated: Mon, 18-Jun-2018 8:35am CDT
Clear
Clear
 Wind from W
Wind: W 12 mph , 19 km/h
Temperature: 82°F , 28°C
Heat Index: 89°F , 32°C
Dew Point: 75°F , 24°C
Humidity: 79%
Barometer: 30.00 inHg , 1015.9 hPa
Clouds: Clear
Visibility: 10 miles , 16 km
2018/06/18 13:35 KC09 181335Z AUTO 26010KT 10SM CLR 28/24 A3000 RMK AO2 T02800235

Metar display script from Saratoga-Weather.org